• Join FlightAware (Why Join?)
  • Login
  • US Flag 
Rudolph Flight #1: Arrived! 
08:50AM EST


 

Airport Tracker/Info


-or-


 

Live Flight TrackerFlight Track Log ✈ FLG4057 ✈ 11-Apr-2013 ✈ KAZO - KDTW

Flight Track Log - Related Links

Times and Time Zones

All times are in EDT time to prevent confusion due to time zone crossing. See the FLG4057 flight status page for this flight to view local times or setup timezone preferences in your user account.

Time Position Orientation Groundspeed Altitude Reporting Facility
EDT Latitude Longitude Course Direction KTS MPH feet Rate Location/Type
07:20PM 42.2817 -85.4869 65° Northeast 219 252 3,500  Level Chicago Center
07:21PM 42.2919 -85.3833 82° East 267 307 6,800 3,360 Climbing Chicago Center
07:22PM 42.2956 -85.2775 87° East 282 325 10,100 2,220 Climbing Cleveland Center
07:23PM 42.2531 -85.1928 124° Southeast 256 295 11,100 420 Climbing Cleveland Center
07:24PM 42.2053 -85.0856 121° Southeast 298 343 11,000 -60 Descending Cleveland Center
07:25PM 42.2331 -85.0628 90° East  Level Estimated
07:25PM 42.1592 -84.9786 120° Southeast 315 362 11,000  Level Cleveland Center
07:26PM 42.1172 -84.8750 119° Southeast 325 374 11,000  Level Cleveland Center
07:27PM 42.0903 -84.7639 108° East 319 367 11,000  Level Cleveland Center
07:28PM 42.0778 -84.6456 98° East 314 361 11,000  Level Cleveland Center
07:29PM 42.0603 -84.5494 104° East 326 375 11,000  Level Cleveland Center
07:29PM 42.0611 -84.5242 87° East 314 361 11,000  Level Cleveland Center
07:30PM 42.0483 -84.4114 99° East 328 377 11,000  Level Cleveland Center
07:31PM 42.0328 -84.3156 102° East 298 343 11,000  Level Cleveland Center
07:31PM 42.0294 -84.2817 98° East 314 361 11,000  Level Cleveland Center
07:32PM 42.0214 -84.2086 98° East 290 334 11,000  Level Cleveland Center
07:32PM 42.0142 -84.1747 106° East 297 342 11,000 -120 Level Cleveland Center
07:33PM 42.0067 -84.0819 96° East 299 344 10,900 -1,080 Descending Cleveland Center
07:34PM 41.9931 -83.9833 100° East 273 314 9,100 -1,800 Descending Cleveland Center
07:35PM 41.9811 -83.8850 99° East 260 299 7,300 -1,080 Descending Cleveland Center
07:36PM 41.9986 -83.7881 76° East 268 308 7,000 -240 Descending Cleveland Center
07:37PM 42.0161 -83.6772 78° East 261 300 6,800 -600 Descending Cleveland Center
07:38PM 42.0181 -83.6075 88° East 203 234 5,900 -1,320 Descending Cleveland Center
07:39PM 42.0325 -83.5325 75° East 223 257 4,400 -1,140 Descending Cleveland Center
07:40PM 42.0714 -83.4811 44° Northeast 208 239 3,800 -900 Descending Cleveland Center
07:41PM 42.1139 -83.4522 27° Northeast 176 203 2,800 -960 Descending Cleveland Center
07:42PM 42.1478 -83.4258 30° Northeast 128 147 2,000 -780 Descending Cleveland Center
07:43PM 42.1797 -83.4019 29° Northeast 125 144 1,300 -720 Descending Cleveland Center
07:45PM 42.2000 -83.3500 48° Northeast  Level FlightAware Approximate